Time;durP1;ratioP1;P1;durP2;ratioP2;P2;SDS_P1;SDS_P2;PMS_P1;PMS_P2;Temp;Humidity;BMP_temperature;BMP_pressure;BME280_temperature;BME280_humidity;BME280_pressure;Samples;Min_cycle;Max_cycle;Signal;HPM_P1;HPM_P2
2021/11/09 00:02:17;;;;;;;;;;;;;;;20.75;53.21;102087.41;7278899;19;151900;-52
2021/11/09 00:04:49;;;;;;;;;;;;;;;20.78;53.34;102075.59;7281620;19;153231;-52
2021/11/09 00:07:28;;;;;;;;;;;;;;;20.80;53.67;102075.31;7279935;19;153435;-52
2021/11/09 00:09:56;;;;;;;;;;;;;;;20.82;53.45;102067.44;7278582;19;152003;-51
2021/11/09 00:12:27;;;;;;;;;;;;;;;20.83;53.69;102069.13;7282075;19;152905;-51
2021/11/09 00:14:55;;;;;;;;;;;;;;;20.84;53.43;102062.38;7278339;19;153656;-53
2021/11/09 00:17:22;;;;;;;;;;;;;;;20.85;53.51;102061.25;7278814;19;153471;-51
2021/11/09 00:19:50;;;;;;;;;;;;;;;20.87;53.49;102064.63;7279737;19;153650;-52
2021/11/09 00:22:18;;;;;;;;;;;;;;;20.87;53.08;102061.81;7287584;19;154322;-49
2021/11/09 00:24:45;;;;;;;;;;;;;;;20.89;53.38;102058.72;7281432;19;152732;-51
2021/11/09 00:27:14;;;;;;;;;;;;;;;20.90;53.52;102061.22;7279947;19;153459;-52
2021/11/09 00:29:41;;;;;;;;;;;;;;;20.91;53.32;102056.47;7279500;19;152760;-53
2021/11/09 00:32:08;;;;;;;;;;;;;;;20.93;53.51;102063.50;7279267;19;153364;-51
2021/11/09 00:34:36;;;;;;;;;;;;;;;20.92;53.51;102058.16;7279786;19;153955;-52
2021/11/09 00:37:03;;;;;;;;;;;;;;;20.93;53.22;102057.88;7281110;19;151465;-52
2021/11/09 00:39:30;;;;;;;;;;;;;;;20.93;53.20;102051.41;7278261;19;153373;-51
2021/11/09 00:41:59;;;;;;;;;;;;;;;20.94;53.60;102056.72;7277664;19;154002;-50
2021/11/09 00:44:26;;;;;;;;;;;;;;;20.95;53.53;102054.75;7287120;19;152118;-51
2021/11/09 00:46:54;;;;;;;;;;;;;;;20.94;54.04;102059.53;7279290;19;154081;-51
2021/11/09 00:49:21;;;;;;;;;;;;;;;20.95;54.43;102055.59;7280462;19;152308;-52
2021/11/09 00:51:49;;;;;;;;;;;;;;;20.95;53.92;102055.59;7280563;19;152363;-49
2021/11/09 00:54:16;;;;;;;;;;;;;;;20.95;54.06;102052.81;7279008;19;153132;-50
2021/11/09 00:56:44;;;;;;;;;;;;;;;20.94;54.12;102059.53;7280558;19;152207;-52
2021/11/09 00:59:12;;;;;;;;;;;;;;;20.96;54.05;102057.31;7278618;19;154470;-52
2021/11/09 01:01:38;;;;;;;;;;;;;;;20.95;54.02;102057.56;7104906;19;3334390;-52
2021/11/09 01:04:06;;;;;;;;;;;;;;;20.97;54.19;102060.97;7282156;19;151720;-51
2021/11/09 01:06:33;;;;;;;;;;;;;;;20.95;54.17;102061.22;7290353;19;152656;-52
2021/11/09 01:09:00;;;;;;;;;;;;;;;20.96;54.36;102060.09;7282820;19;151888;-51
2021/11/09 01:11:27;;;;;;;;;;;;;;;20.96;54.27;102062.06;7281912;19;151989;-52
2021/11/09 01:13:54;;;;;;;;;;;;;;;20.96;54.19;102059.25;7283990;19;153284;-51
2021/11/09 01:16:21;;;;;;;;;;;;;;;20.94;54.00;102061.53;7289742;19;152152;-51
2021/11/09 01:18:50;;;;;;;;;;;;;;;20.93;54.51;102063.50;7287358;19;153165;-52
2021/11/09 01:21:18;;;;;;;;;;;;;;;20.93;54.24;102057.88;7286340;19;154296;-51
2021/11/09 01:23:47;;;;;;;;;;;;;;;20.92;54.45;102060.97;7287561;19;153009;-51
2021/11/09 01:26:14;;;;;;;;;;;;;;;20.93;54.29;102057.88;7287016;19;153171;-51
2021/11/09 01:28:42;;;;;;;;;;;;;;;20.92;54.52;102061.81;7295575;19;154441;-52
2021/11/09 01:31:09;;;;;;;;;;;;;;;20.91;54.41;102062.09;7289552;19;153323;-52
2021/11/09 01:33:38;;;;;;;;;;;;;;;20.92;54.65;102059.00;7285496;19;154446;-51
2021/11/09 01:36:05;;;;;;;;;;;;;;;20.94;54.33;102065.16;7285498;19;152255;-52
2021/11/09 01:38:32;;;;;;;;;;;;;;;20.91;54.80;102056.47;7286465;19;153644;-52
2021/11/09 01:41:00;;;;;;;;;;;;;;;20.90;54.92;102058.44;7288185;19;154629;-51
2021/11/09 01:43:28;;;;;;;;;;;;;;;20.91;54.63;102062.94;7289301;19;152147;-50
2021/11/09 01:45:55;;;;;;;;;;;;;;;20.91;54.91;102059.28;7287770;19;153454;-51
2021/11/09 01:48:23;;;;;;;;;;;;;;;20.89;54.92;102053.97;7287560;19;153988;-50
2021/11/09 01:50:52;;;;;;;;;;;;;;;20.89;54.84;102053.97;7292423;19;152070;-51
2021/11/09 01:53:20;;;;;;;;;;;;;;;20.88;54.80;102060.69;7287964;19;153451;-51
2021/11/09 01:55:47;;;;;;;;;;;;;;;20.87;55.30;102050.56;7287592;19;151763;-51
2021/11/09 01:58:15;;;;;;;;;;;;;;;20.85;55.29;102048.03;7286522;19;153288;-52
2021/11/09 02:00:44;;;;;;;;;;;;;;;20.85;54.86;102044.38;7287836;19;154116;-52
2021/11/09 02:03:12;;;;;;;;;;;;;;;20.85;55.20;102042.41;7283998;19;152369;-52
2021/11/09 02:05:42;;;;;;;;;;;;;;;20.83;54.81;102041.88;7287900;19;153274;-52
2021/11/09 02:08:09;;;;;;;;;;;;;;;20.84;54.92;102037.09;7287486;19;153976;-52
2021/11/09 02:10:38;;;;;;;;;;;;;;;20.81;54.71;102034.84;7293401;19;151880;-51
2021/11/09 02:13:05;;;;;;;;;;;;;;;20.82;55.25;102036.53;7287839;19;153350;-52
2021/11/09 02:15:34;;;;;;;;;;;;;;;20.81;54.82;102040.47;7288052;19;152096;-51
2021/11/09 02:18:01;;;;;;;;;;;;;;;20.81;55.25;102037.66;7288586;19;152713;-51
2021/11/09 02:20:29;;;;;;;;;;;;;;;20.79;55.14;102037.97;7284994;19;153617;-52
2021/11/09 02:22:56;;;;;;;;;;;;;;;20.79;55.04;102037.13;7287461;19;154165;-52
2021/11/09 02:25:25;;;;;;;;;;;;;;;20.79;55.14;102040.78;7286053;19;153459;-51
2021/11/09 02:27:52;;;;;;;;;;;;;;;20.79;54.92;102031.50;7287715;19;153269;-51
2021/11/09 02:30:23;;;;;;;;;;;;;;;20.76;55.41;102024.47;7286486;19;152077;-51
2021/11/09 02:32:51;;;;;;;;;;;;;;;20.75;55.19;102017.19;7294738;19;153577;-52
2021/11/09 02:35:20;;;;;;;;;;;;;;;20.75;55.22;102021.97;7286043;19;151782;-52
2021/11/09 02:37:47;;;;;;;;;;;;;;;20.76;55.47;102026.44;7286615;19;152872;-52
2021/11/09 02:40:14;;;;;;;;;;;;;;;20.74;55.43;102020.28;7286547;19;153904;-52
2021/11/09 02:42:43;;;;;;;;;;;;;;;20.74;55.52;102023.91;7285206;19;151888;-51
2021/11/09 02:45:15;;;;;;;;;;;;;;;20.73;55.74;102022.22;7285411;19;153201;-51
2021/11/09 02:47:47;;;;;;;;;;;;;;;20.71;55.80;102027.31;7284528;19;153906;-52
2021/11/09 02:50:15;;;;;;;;;;;;;;;20.73;55.38;102030.66;7284908;19;152131;-52
2021/11/09 02:52:52;;;;;;;;;;;;;;;20.72;55.86;102026.16;7286921;19;152420;-52
2021/11/09 02:55:25;;;;;;;;;;;;;;;20.70;55.41;102025.63;7292688;19;153439;-51
2021/11/09 02:58:00;;;;;;;;;;;;;;;20.70;55.86;102031.25;7285669;19;152985;-51
2021/11/09 03:00:31;;;;;;;;;;;;;;;20.70;56.01;102034.03;7286213;19;153252;-51
2021/11/09 03:03:06;;;;;;;;;;;;;;;20.68;56.13;102035.44;7282695;19;152124;-52
2021/11/09 03:06:09;;;;;;;;;;;;;;;20.63;56.29;102025.06;7286891;19;152746;-52
2021/11/09 03:10:51;;;;;;;;;;;;;;;20.65;56.07;102022.81;7281962;19;152095;-51
2021/11/09 03:13:19;;;;;;;;;;;;;;;20.63;55.98;102025.06;7285470;19;153154;-51
2021/11/09 03:15:47;;;;;;;;;;;;;;;20.60;56.37;102014.41;7282738;19;152943;-52
2021/11/09 03:18:17;;;;;;;;;;;;;;;20.60;56.16;102025.63;7291730;19;152645;-51
2021/11/09 03:46:14;;;;;;;;;;;;;;;20.49;56.32;102031.53;7284467;19;152335;-52
2021/11/09 03:48:41;;;;;;;;;;;;;;;20.50;56.09;102034.06;7282648;19;154156;-51
2021/11/09 03:51:07;;;;;;;;;;;;;;;20.47;56.61;102037.44;7283705;19;151995;-52
2021/11/09 03:53:37;;;;;;;;;;;;;;;20.47;56.43;102033.78;7285613;19;153191;-50
2021/11/09 03:56:13;;;;;;;;;;;;;;;20.45;56.59;102034.06;7283910;19;152931;-52
2021/11/09 03:58:44;;;;;;;;;;;;;;;20.47;56.20;102043.06;7286118;19;152363;-52
2021/11/09 04:01:14;;;;;;;;;;;;;;;20.44;56.48;102045.59;7282655;19;153747;-50
2021/11/09 04:11:27;;;;;;;;;;;;;;;20.44;56.47;102043.63;7282934;19;152040;-52
2021/11/09 04:14:01;;;;;;;;;;;;;;;20.41;56.85;102044.16;7285524;19;153904;-51
2021/11/09 04:16:35;;;;;;;;;;;;;;;20.41;56.80;102042.19;7283578;19;153292;-51
2021/11/09 04:22:04;;;;;;;;;;;;;;;20.40;56.72;102048.09;7284053;19;152806;-51
2021/11/09 04:29:43;;;;;;;;;;;;;;;20.38;56.87;102065.22;7284223;19;153163;-53
2021/11/09 04:32:23;;;;;;;;;;;;;;;20.36;57.01;102061.84;7280109;19;151916;-51
2021/11/09 05:08:36;;;;;;;;;;;;;;;20.20;57.44;102076.97;7283975;19;152119;-51
2021/11/09 05:11:03;;;;;;;;;;;;;;;20.22;57.25;102076.66;7288047;19;151912;-52
2021/11/09 05:13:30;;;;;;;;;;;;;;;20.22;57.30;102071.06;7281315;19;153496;-52
2021/11/09 05:15:57;;;;;;;;;;;;;;;20.16;57.10;102067.44;7280153;19;154046;-52
2021/11/09 05:18:25;;;;;;;;;;;;;;;20.19;57.19;102072.47;7282478;19;153973;-51
2021/11/09 05:20:52;;;;;;;;;;;;;;;20.16;57.18;102066.59;7281169;19;152287;-51
2021/11/09 05:23:20;;;;;;;;;;;;;;;20.16;57.34;102070.22;7281742;19;152097;-53
2021/11/09 05:25:49;;;;;;;;;;;;;;;20.13;57.27;102079.19;7280108;19;153340;-52
2021/11/09 05:28:16;;;;;;;;;;;;;;;20.14;57.49;102074.41;7282706;19;152066;-52
2021/11/09 05:30:47;;;;;;;;;;;;;;;20.10;57.65;102076.09;7280459;19;153070;-53
2021/11/09 05:33:15;;;;;;;;;;;;;;;20.09;57.62;102072.44;7287476;19;154409;-50
2021/11/09 05:35:42;;;;;;;;;;;;;;;20.09;57.70;102072.44;7279843;19;152931;-52
2021/11/09 05:38:10;;;;;;;;;;;;;;;20.09;57.58;102069.66;7282380;19;152427;-51
2021/11/09 05:40:40;;;;;;;;;;;;;;;20.06;57.90;102074.97;7282618;19;151931;-51
2021/11/09 05:43:07;;;;;;;;;;;;;;;20.09;57.58;102080.88;7283033;19;153506;-52
2021/11/09 05:45:35;;;;;;;;;;;;;;;20.02;57.98;102085.91;7280095;19;153731;-52
2021/11/09 05:48:02;;;;;;;;;;;;;;;20.04;57.92;102088.44;7280495;19;151744;-52
2021/11/09 05:50:30;;;;;;;;;;;;;;;20.03;57.47;102086.75;7282254;19;152823;-52
2021/11/09 05:52:58;;;;;;;;;;;;;;;19.99;58.04;102090.09;7280634;19;153430;-51
2021/11/09 05:55:25;;;;;;;;;;;;;;;19.99;57.53;102092.91;7289730;19;151696;-52
2021/11/09 05:57:52;;;;;;;;;;;;;;;19.97;57.96;102089.56;7281771;19;153530;-52
2021/11/09 06:00:19;;;;;;;;;;;;;;;19.98;57.73;102090.41;7287360;19;152252;-51
2021/11/09 06:02:47;;;;;;;;;;;;;;;19.97;58.04;102089.56;7286653;19;153188;-52
2021/11/09 06:05:14;;;;;;;;;;;;;;;19.95;58.17;102096.53;7287097;19;155730;-52
2021/11/09 06:07:41;;;;;;;;;;;;;;;19.91;58.27;102092.59;7288812;19;151938;-52
2021/11/09 06:10:08;;;;;;;;;;;;;;;19.88;58.10;102102.44;7286538;19;151948;-52
2021/11/09 06:12:35;;;;;;;;;;;;;;;19.95;58.22;102100.19;7283484;19;153919;-51
2021/11/09 06:15:02;;;;;;;;;;;;;;;19.95;57.94;102107.75;7296632;19;152066;-50
2021/11/09 06:17:29;;;;;;;;;;;;;;;19.95;58.12;102107.75;7285095;19;152236;-52
2021/11/09 06:19:56;;;;;;;;;;;;;;;20.01;58.18;102103.88;7286617;19;151981;-51
2021/11/09 06:22:23;;;;;;;;;;;;;;;19.99;58.46;102101.31;7288376;19;152879;-51
2021/11/09 06:24:50;;;;;;;;;;;;;;;20.03;59.15;102104.44;7285979;19;152714;-52
2021/11/09 06:27:18;;;;;;;;;;;;;;;20.02;59.26;102108.38;7288379;19;151868;-52
2021/11/09 06:29:45;;;;;;;;;;;;;;;20.04;59.30;102099.66;7285668;19;153467;-51
2021/11/09 06:32:14;;;;;;;;;;;;;;;20.06;59.71;102103.88;7284898;19;154320;-52
2021/11/09 06:34:41;;;;;;;;;;;;;;;20.11;59.85;102091.81;7285190;19;151700;-52
2021/11/09 06:37:07;;;;;;;;;;;;;;;20.14;60.24;102094.06;7293532;19;152843;-53
2021/11/09 06:39:34;;;;;;;;;;;;;;;20.17;60.14;102099.97;7288675;19;152396;-52
2021/11/09 06:42:02;;;;;;;;;;;;;;;20.22;60.42;102099.97;7287517;19;152144;-52
2021/11/09 06:44:29;;;;;;;;;;;;;;;20.26;61.08;102098.28;7287069;19;153524;-52
2021/11/09 06:46:56;;;;;;;;;;;;;;;20.32;60.72;102102.81;7288054;19;151869;-52
2021/11/09 06:49:23;;;;;;;;;;;;;;;20.36;60.99;102101.16;7287544;19;153601;-52
2021/11/09 06:51:50;;;;;;;;;;;;;;;20.41;60.38;102103.97;7284752;19;152651;-51
2021/11/09 06:54:17;;;;;;;;;;;;;;;20.45;60.69;102107.03;7287801;19;151830;-53
2021/11/09 06:56:45;;;;;;;;;;;;;;;20.50;60.20;102103.41;7287807;19;153127;-52
2021/11/09 06:59:14;;;;;;;;;;;;;;;20.55;60.53;102107.06;7293801;19;154982;-52
2021/11/09 07:01:43;;;;;;;;;;;;;;;20.59;60.27;102105.38;7285136;19;152718;-52
2021/11/09 07:04:10;;;;;;;;;;;;;;;20.65;60.59;102111.84;7283850;19;154239;-53
2021/11/09 07:06:37;;;;;;;;;;;;;;;20.68;60.56;102109.28;7286635;19;152061;-50
2021/11/09 07:09:04;;;;;;;;;;;;;;;20.73;60.31;102114.06;7287418;19;153234;-53
2021/11/09 07:11:30;;;;;;;;;;;;;;;20.77;60.18;102118.00;7280702;19;153462;-51
2021/11/09 07:13:57;;;;;;;;;;;;;;;20.82;60.44;102123.63;7285585;19;151806;-52
2021/11/09 07:16:26;;;;;;;;;;;;;;;20.89;60.13;102128.97;7286699;19;152439;-52
2021/11/09 07:19:00;;;;;;;;;;;;;;;21.01;61.68;102129.50;7286376;19;154064;-52
2021/11/09 07:21:27;;;;;;;;;;;;;;;21.04;60.42;102129.78;7294291;19;152137;-52
2021/11/09 07:23:54;;;;;;;;;;;;;;;21.14;60.17;102135.41;7282458;19;152561;-50
2021/11/09 07:26:21;;;;;;;;;;;;;;;21.04;57.77;102131.72;7284645;19;151796;-50
2021/11/09 07:28:49;;;;;;;;;;;;;;;21.10;57.59;102133.41;7285468;19;152280;-51
2021/11/09 07:31:17;;;;;;;;;;;;;;;21.16;57.33;102138.81;7284723;19;154328;-51
2021/11/09 07:33:45;;;;;;;;;;;;;;;21.24;57.66;102141.03;7284030;19;152147;-51
2021/11/09 07:36:12;;;;;;;;;;;;;;;21.27;57.56;102150.84;7283702;19;153497;-50
2021/11/09 07:38:39;;;;;;;;;;;;;;;21.32;56.33;102152.81;7284832;19;153629;-50
2021/11/09 07:41:06;;;;;;;;;;;;;;;21.35;56.42;102152.25;7284303;19;151813;-50
2021/11/09 07:43:33;;;;;;;;;;;;;;;21.36;56.02;102146.31;7291096;19;152841;-51
2021/11/09 07:46:00;;;;;;;;;;;;;;;21.41;55.79;102160.38;7283656;19;152003;-50
2021/11/09 07:48:28;;;;;;;;;;;;;;;21.44;55.30;102148.53;7284545;19;152223;-51
2021/11/09 07:50:55;;;;;;;;;;;;;;;21.48;55.30;102154.47;7282894;19;153523;-50
2021/11/09 07:53:23;;;;;;;;;;;;;;;21.50;55.13;102155.84;7280580;19;151895;-50
2021/11/09 07:55:54;;;;;;;;;;;;;;;21.54;54.63;102158.94;7282361;19;152732;-51
2021/11/09 07:58:32;;;;;;;;;;;;;;;21.55;54.54;102166.25;7281951;19;153718;-50
2021/11/09 08:01:07;;;;;;;;;;;;;;;21.56;54.59;102171.59;7285678;19;151806;-51
2021/11/09 08:03:38;;;;;;;;;;;;;;;21.58;54.38;102171.28;7279028;19;152225;-50
2021/11/09 08:06:12;;;;;;;;;;;;;;;21.59;53.97;102167.34;7291653;19;152398;-50
2021/11/09 08:08:53;;;;;;;;;;;;;;;21.60;54.07;102175.50;7285115;19;152770;-51
2021/11/09 08:11:20;;;;;;;;;;;;;;;21.61;54.13;102174.41;7283890;19;153623;-50
2021/11/09 08:13:47;;;;;;;;;;;;;;;21.61;53.58;102182.84;7283523;19;152308;-50
2021/11/09 08:16:15;;;;;;;;;;;;;;;21.60;53.70;102175.50;7285179;19;153197;-50
2021/11/09 08:18:42;;;;;;;;;;;;;;;21.61;53.65;102167.91;7283892;19;154788;-49
2021/11/09 08:21:10;;;;;;;;;;;;;;;21.59;53.58;102171.00;7280824;19;151914;-51
2021/11/09 08:23:37;;;;;;;;;;;;;;;21.64;53.69;102176.63;7281865;19;153155;-50
2021/11/09 08:26:04;;;;;;;;;;;;;;;21.60;53.08;102175.50;7291470;19;153329;-50
2021/11/09 08:28:33;;;;;;;;;;;;;;;21.51;52.85;102170.75;7282507;19;153688;-50
2021/11/09 08:31:07;;;;;;;;;;;;;;;21.53;52.75;102165.69;7270093;19;153717;-51
2021/11/09 08:33:34;;;;;;;;;;;;;;;21.54;52.73;102170.19;7274075;19;152127;-51
2021/11/09 08:36:05;;;;;;;;;;;;;;;21.56;53.00;102174.41;7281759;19;152944;-51
2021/11/09 08:38:33;;;;;;;;;;;;;;;21.55;52.81;102172.72;7283115;19;153336;-51
2021/11/09 08:41:06;;;;;;;;;;;;;;;21.55;52.51;102167.09;7277320;19;154094;-51
2021/11/09 08:43:36;;;;;;;;;;;;;;;21.54;52.58;102173.00;7281783;19;153478;-51
2021/11/09 08:48:39;;;;;;;;;;;;;;;21.54;52.64;102162.59;7287586;19;152413;-51
2021/11/09 08:51:09;;;;;;;;;;;;;;;21.53;52.33;102165.69;7278802;19;154636;-51
2021/11/09 08:53:41;;;;;;;;;;;;;;;21.52;52.79;102173.28;7280386;19;152199;-51
2021/11/09 08:56:17;;;;;;;;;;;;;;;21.51;52.63;102168.78;7282633;19;153558;-51
2021/11/09 09:01:42;;;;;;;;;;;;;;;21.51;52.49;102176.38;7282351;19;152560;-51
2021/11/09 09:06:35;;;;;;;;;;;;;;;21.49;52.29;102167.38;7281408;19;153273;-50
2021/11/09 09:09:02;;;;;;;;;;;;;;;21.48;52.16;102172.19;7260207;19;156032;-51
2021/11/09 09:11:30;;;;;;;;;;;;;;;21.48;52.49;102174.16;7284683;19;152648;-50
2021/11/09 09:13:58;;;;;;;;;;;;;;;21.47;52.36;102178.94;7277758;19;152515;-50
2021/11/09 09:16:26;;;;;;;;;;;;;;;21.44;52.47;102175.84;7278710;19;153374;-50
2021/11/09 09:18:54;;;;;;;;;;;;;;;21.42;52.04;102178.09;7280226;19;153311;-50
2021/11/09 09:21:28;;;;;;;;;;;;;;;21.40;52.11;102178.38;7279267;19;152191;-50
2021/11/09 09:24:01;;;;;;;;;;;;;;;21.39;52.42;102178.66;7280350;19;152629;-50
2021/11/09 09:26:38;;;;;;;;;;;;;;;21.35;52.26;102169.94;7280077;19;153800;-51
2021/11/09 09:29:21;;;;;;;;;;;;;;;21.36;52.17;102179.22;7278837;19;151818;-50
2021/11/09 09:57:41;;;;;;;;;;;;;;;21.15;51.71;102170.84;7293635;19;151928;-50
2021/11/09 10:00:09;;;;;;;;;;;;;;;21.17;51.46;102170.53;7285448;19;153828;-50
2021/11/09 10:02:45;;;;;;;;;;;;;;;21.19;51.48;102159.88;7282834;19;152078;-51
2021/11/09 10:05:13;;;;;;;;;;;;;;;21.21;52.08;102160.44;7283790;19;152697;-50
2021/11/09 10:07:42;;;;;;;;;;;;;;;21.18;51.83;102159.00;7286329;19;153478;-51
2021/11/09 10:10:25;;;;;;;;;;;;;;;21.19;51.73;102168.28;7285236;19;151534;-51
2021/11/09 10:12:55;;;;;;;;;;;;;;;21.17;51.69;102170.53;7285942;19;153582;-50
2021/11/09 10:15:26;;;;;;;;;;;;;;;21.17;51.89;102170.53;7284941;19;152555;-51
2021/11/09 10:17:54;;;;;;;;;;;;;;;21.17;51.75;102170.53;7285020;19;151879;-50
2021/11/09 10:20:24;;;;;;;;;;;;;;;21.16;51.85;102174.50;7293899;19;153223;-51
2021/11/09 10:22:52;;;;;;;;;;;;;;;21.12;51.67;102176.97;7285340;19;152071;-50
2021/11/09 10:25:20;;;;;;;;;;;;;;;21.12;51.90;102174.16;7284442;19;152213;-50
2021/11/09 10:27:49;;;;;;;;;;;;;;;21.11;51.75;102171.66;7285377;19;153425;-51
2021/11/09 10:30:21;;;;;;;;;;;;;;;21.09;52.08;102169.09;7281684;19;153767;-51
2021/11/09 10:32:50;;;;;;;;;;;;;;;21.09;51.68;102166.31;7286504;19;153156;-50
2021/11/09 10:35:18;;;;;;;;;;;;;;;21.09;51.76;102168.25;7285788;19;154146;-51
2021/11/09 10:37:47;;;;;;;;;;;;;;;21.07;52.19;102162.09;7286483;19;151948;-50
2021/11/09 10:40:30;;;;;;;;;;;;;;;21.06;52.38;102161.25;7291329;19;153298;-50
2021/11/09 10:43:14;;;;;;;;;;;;;;;21.06;51.82;102166.88;7284800;19;151687;-51
2021/11/09 10:46:17;;;;;;;;;;;;;;;21.05;52.09;102167.16;7285960;19;152088;-51
2021/11/09 10:49:08;;;;;;;;;;;;;;;21.05;52.05;102167.16;7283819;19;152425;-51
2021/11/09 10:51:55;;;;;;;;;;;;;;;21.03;52.23;102166.59;7285493;19;152601;-50
2021/11/09 10:54:25;;;;;;;;;;;;;;;21.04;51.92;102159.84;7281735;19;153407;-50
2021/11/09 10:57:09;;;;;;;;;;;;;;;21.01;51.65;102164.06;7285174;19;152899;-51
2021/11/09 11:00:34;;;;;;;;;;;;;;;20.98;51.66;102166.59;7285734;19;152162;-50
2021/11/09 11:04:56;;;;;;;;;;;;;;;20.95;51.54;102165.19;7292762;19;153480;-50
2021/11/09 11:07:23;;;;;;;;;;;;;;;20.92;51.86;102157.31;7286201;19;153179;-50
2021/11/09 11:10:03;;;;;;;;;;;;;;;20.90;51.98;102170.81;7284753;19;154637;-50
2021/11/09 11:12:36;;;;;;;;;;;;;;;20.86;51.61;102152.81;7286328;19;151778;-51
2021/11/09 11:15:06;;;;;;;;;;;;;;;20.85;51.47;102159.56;7286503;19;153539;-51
2021/11/09 11:17:37;;;;;;;;;;;;;;;20.83;51.87;102157.06;7284963;19;152991;-51
2021/11/09 11:20:04;;;;;;;;;;;;;;;20.83;51.98;102157.06;7286309;19;152643;-50
2021/11/09 11:22:32;;;;;;;;;;;;;;;20.82;52.04;102151.72;7283959;19;153196;-51
2021/11/09 11:24:59;;;;;;;;;;;;;;;20.84;51.98;102149.47;7282542;19;153304;-51
2021/11/09 11:27:30;;;;;;;;;;;;;;;20.84;51.53;102144.69;7291230;19;152388;-51
2021/11/09 11:29:58;;;;;;;;;;;;;;;20.82;51.87;102152.56;7281187;19;153043;-51
2021/11/09 11:32:25;;;;;;;;;;;;;;;20.81;51.62;102147.22;7285888;19;152321;-51
2021/11/09 11:34:54;;;;;;;;;;;;;;;20.81;51.67;102138.78;7283115;19;151931;-50
2021/11/09 11:37:25;;;;;;;;;;;;;;;20.79;51.85;102141.88;7284732;19;152937;-51
2021/11/09 11:39:59;;;;;;;;;;;;;;;20.77;51.68;102151.69;7283602;19;152172;-51
2021/11/09 11:42:26;;;;;;;;;;;;;;;20.75;51.60;102146.38;7284999;19;153204;-50
2021/11/09 11:44:55;;;;;;;;;;;;;;;20.73;51.72;102139.34;7282614;19;153478;-51
2021/11/09 11:47:23;;;;;;;;;;;;;;;20.73;51.78;102136.53;7285418;19;152131;-51
2021/11/09 11:49:52;;;;;;;;;;;;;;;20.75;51.66;102134.31;7290362;19;153981;-50
2021/11/09 11:52:24;;;;;;;;;;;;;;;20.73;51.72;102142.16;7283219;19;152758;-50
2021/11/09 11:54:55;;;;;;;;;;;;;;;20.75;51.32;102134.31;7279776;19;153143;-51
2021/11/09 11:57:25;;;;;;;;;;;;;;;20.75;51.69;102128.69;7281034;19;153779;-50
2021/11/09 11:59:52;;;;;;;;;;;;;;;20.80;51.36;102132.31;7281922;19;151939;-51
2021/11/09 12:02:32;;;;;;;;;;;;;;;20.77;51.24;102129.22;7280826;19;151999;-50
2021/11/09 12:04:59;;;;;;;;;;;;;;;20.76;51.50;102119.97;7281818;19;153607;-51
2021/11/09 12:07:29;;;;;;;;;;;;;;;20.73;51.58;102117.72;7282435;19;152208;-51
2021/11/09 12:10:04;;;;;;;;;;;;;;;20.75;51.33;102115.50;7282857;19;153236;-51
2021/11/09 12:12:33;;;;;;;;;;;;;;;20.76;51.17;102125.56;7289443;19;153475;-51
2021/11/09 12:15:02;;;;;;;;;;;;;;;20.76;51.29;102124.72;7281995;19;152766;-50
2021/11/09 12:17:32;;;;;;;;;;;;;;;20.74;50.95;102113.81;7281699;19;154223;-51
2021/11/09 12:20:04;;;;;;;;;;;;;;;20.73;50.93;102117.72;7282827;19;152453;-51
2021/11/09 12:22:34;;;;;;;;;;;;;;;20.71;51.32;102117.19;7285395;19;153191;-51
2021/11/09 12:25:01;;;;;;;;;;;;;;;20.71;50.98;102110.72;7283370;19;152955;-50
2021/11/09 12:27:47;;;;;;;;;;;;;;;20.70;51.21;102107.06;7282522;19;152039;-51
2021/11/09 12:30:35;;;;;;;;;;;;;;;20.70;51.08;102106.22;7282189;19;153230;-51
2021/11/09 12:33:05;;;;;;;;;;;;;;;20.66;51.04;102100.31;7280692;19;154816;-50
2021/11/09 12:35:39;;;;;;;;;;;;;;;20.66;50.99;102107.91;7290448;19;152416;-50
2021/11/09 12:38:09;;;;;;;;;;;;;;;20.64;51.02;102098.91;7281282;19;154449;-51
2021/11/09 12:40:39;;;;;;;;;;;;;;;20.62;51.11;102099.22;7281781;19;152109;-50
2021/11/09 12:43:09;;;;;;;;;;;;;;;20.62;50.86;102092.75;7284928;19;153377;-50
2021/11/09 12:45:37;;;;;;;;;;;;;;;20.61;51.20;102097.53;7282360;19;153839;-51
2021/11/09 12:48:06;;;;;;;;;;;;;;;20.61;50.88;102097.53;7282163;19;152202;-51
2021/11/09 12:50:34;;;;;;;;;;;;;;;20.58;51.22;102097.25;7281451;19;152772;-51
2021/11/09 12:53:03;;;;;;;;;;;;;;;20.56;51.07;102083.47;7281867;19;153232;-51
2021/11/09 12:55:30;;;;;;;;;;;;;;;20.55;51.20;102086.56;7289077;19;151769;-51
2021/11/09 12:58:00;;;;;;;;;;;;;;;20.51;51.04;102088.25;7283078;19;152961;-51
2021/11/09 13:00:38;;;;;;;;;;;;;;;20.47;51.63;102089.94;7283356;19;151875;-51
2021/11/09 13:03:20;;;;;;;;;;;;;;;20.52;51.35;102087.13;7278574;19;153384;-50
2021/11/09 13:05:53;;;;;;;;;;;;;;;20.48;51.26;102088.81;7279878;19;153268;-51
2021/11/09 13:08:28;;;;;;;;;;;;;;;20.45;51.34;102086.53;7281449;19;152042;-50
2021/11/09 13:10:57;;;;;;;;;;;;;;;20.44;51.63;102082.94;7289563;19;152725;-50
2021/11/09 13:13:24;;;;;;;;;;;;;;;20.46;51.30;102086.28;7286428;19;153758;-50
2021/11/09 13:15:51;;;;;;;;;;;;;;;20.46;51.42;102082.63;7287321;19;151682;-51
2021/11/09 13:18:19;;;;;;;;;;;;;;;20.41;51.40;102086.28;7295867;19;152990;-50
2021/11/09 13:20:52;;;;;;;;;;;;;;;20.36;51.79;102080.66;7287276;19;152104;-51
2021/11/09 13:23:28;;;;;;;;;;;;;;;20.34;51.54;102077.28;7289459;19;153485;-51
2021/11/09 13:25:55;;;;;;;;;;;;;;;20.31;51.82;102078.69;7287628;19;153241;-51
2021/11/09 13:28:26;;;;;;;;;;;;;;;20.36;51.76;102084.31;7286112;19;151792;-50
2021/11/09 13:30:54;;;;;;;;;;;;;;;20.36;51.75;102078.69;7287392;19;153850;-50
2021/11/09 13:33:22;;;;;;;;;;;;;;;20.31;51.74;102072.22;7285823;19;153395;-50
2021/11/09 13:35:49;;;;;;;;;;;;;;;20.32;52.01;102076.72;7288849;19;152056;-51
2021/11/09 13:38:18;;;;;;;;;;;;;;;20.29;51.95;102072.50;7289581;19;153066;-51
2021/11/09 13:40:47;;;;;;;;;;;;;;;20.24;52.02;102075.28;7294731;19;153449;-51
2021/11/09 13:43:15;;;;;;;;;;;;;;;20.21;51.83;102073.06;7286822;19;153791;-51
2021/11/09 13:45:42;;;;;;;;;;;;;;;20.20;51.86;102079.78;7285536;19;153894;-51
2021/11/09 13:48:12;;;;;;;;;;;;;;;20.17;52.30;102068.28;7288653;19;151784;-51
2021/11/09 13:50:40;;;;;;;;;;;;;;;20.15;52.18;102073.31;7285969;19;154001;-50
2021/11/09 13:53:07;;;;;;;;;;;;;;;20.13;52.17;102065.16;7287675;19;153591;-50
2021/11/09 13:55:36;;;;;;;;;;;;;;;20.13;52.35;102064.31;7282726;19;153383;-51
2021/11/09 13:58:03;;;;;;;;;;;;;;;20.16;52.00;102066.59;7286441;19;152778;-50
2021/11/09 14:00:35;;;;;;;;;;;;;;;20.11;52.54;102067.41;7284406;19;153851;-50
2021/11/09 14:03:09;;;;;;;;;;;;;;;20.11;52.57;102072.19;7291917;19;151661;-50
2021/11/09 14:05:54;;;;;;;;;;;;;;;20.10;52.51;102064.88;7284529;19;154243;-50
2021/11/09 14:11:10;;;;;;;;;;;;;;;20.15;52.00;102070.50;7286083;19;152922;-50
2021/11/09 14:13:52;;;;;;;;;;;;;;;20.09;52.25;102063.19;7287039;19;153374;-50
2021/11/09 14:16:31;;;;;;;;;;;;;;;20.06;52.35;102059.00;7288108;19;152090;-51
2021/11/09 14:18:58;;;;;;;;;;;;;;;20.10;52.50;102059.28;7286099;19;152393;-50
2021/11/09 14:21:28;;;;;;;;;;;;;;;20.02;52.50;102052.25;7283256;19;154337;-51
2021/11/09 14:23:55;;;;;;;;;;;;;;;20.07;52.59;102054.22;7287930;19;151942;-50
2021/11/09 14:26:23;;;;;;;;;;;;;;;20.03;52.40;102058.72;7293954;19;152717;-50
2021/11/09 14:28:52;;;;;;;;;;;;;;;20.03;52.73;102059.56;7284925;19;151802;-50
2021/11/09 14:31:25;;;;;;;;;;;;;;;19.99;52.85;102058.41;7287727;19;152745;-51
2021/11/09 14:33:54;;;;;;;;;;;;;;;20.01;52.79;102058.97;7283424;19;154202;-50
2021/11/09 14:36:23;;;;;;;;;;;;;;;19.98;52.73;102053.94;7285037;19;152015;-51